sensor_id;sensor_type;location;lat;lon;timestamp;P1;durP1;ratioP1;P2;durP2;ratioP2
69207;SDS011;70114;47.690;8.898;2023-10-08T00:01:14;7.63;;;1.70;;
69207;SDS011;70114;47.690;8.898;2023-10-08T00:03:41;7.95;;;2.20;;
69207;SDS011;70114;47.690;8.898;2023-10-08T00:06:16;8.55;;;2.00;;
69207;SDS011;70114;47.690;8.898;2023-10-08T00:08:44;7.57;;;2.17;;
69207;SDS011;70114;47.690;8.898;2023-10-08T00:11:10;8.23;;;2.57;;
69207;SDS011;70114;47.690;8.898;2023-10-08T00:13:36;9.05;;;2.13;;
69207;SDS011;70114;47.690;8.898;2023-10-08T00:16:08;8.38;;;2.17;;
69207;SDS011;70114;47.690;8.898;2023-10-08T00:18:34;7.30;;;1.87;;
69207;SDS011;70114;47.690;8.898;2023-10-08T00:21:01;7.80;;;2.00;;
69207;SDS011;70114;47.690;8.898;2023-10-08T00:23:35;8.02;;;1.98;;
69207;SDS011;70114;47.690;8.898;2023-10-08T00:26:06;7.53;;;2.10;;
69207;SDS011;70114;47.690;8.898;2023-10-08T00:28:32;9.88;;;2.33;;
69207;SDS011;70114;47.690;8.898;2023-10-08T00:30:58;9.43;;;2.23;;
69207;SDS011;70114;47.690;8.898;2023-10-08T00:33:31;8.10;;;2.25;;
69207;SDS011;70114;47.690;8.898;2023-10-08T00:35:56;8.33;;;2.40;;
69207;SDS011;70114;47.690;8.898;2023-10-08T00:38:22;7.95;;;2.50;;
69207;SDS011;70114;47.690;8.898;2023-10-08T00:40:50;8.33;;;2.10;;
69207;SDS011;70114;47.690;8.898;2023-10-08T00:43:33;7.90;;;2.05;;
69207;SDS011;70114;47.690;8.898;2023-10-08T00:46:03;7.47;;;2.20;;
69207;SDS011;70114;47.690;8.898;2023-10-08T00:48:47;8.77;;;2.35;;
69207;SDS011;70114;47.690;8.898;2023-10-08T00:51:14;7.75;;;2.17;;
69207;SDS011;70114;47.690;8.898;2023-10-08T00:53:50;9.70;;;2.23;;
69207;SDS011;70114;47.690;8.898;2023-10-08T00:56:27;8.38;;;2.17;;
69207;SDS011;70114;47.690;8.898;2023-10-08T00:59:11;7.88;;;2.10;;
69207;SDS011;70114;47.690;8.898;2023-10-08T01:01:39;7.82;;;2.45;;
69207;SDS011;70114;47.690;8.898;2023-10-08T01:04:04;8.97;;;2.70;;
69207;SDS011;70114;47.690;8.898;2023-10-08T01:06:37;8.40;;;2.55;;
69207;SDS011;70114;47.690;8.898;2023-10-08T01:09:04;9.13;;;2.67;;
69207;SDS011;70114;47.690;8.898;2023-10-08T01:11:42;8.70;;;2.50;;
69207;SDS011;70114;47.690;8.898;2023-10-08T01:14:14;8.77;;;2.40;;
69207;SDS011;70114;47.690;8.898;2023-10-08T01:16:40;7.45;;;2.03;;
69207;SDS011;70114;47.690;8.898;2023-10-08T01:19:10;7.13;;;2.30;;
69207;SDS011;70114;47.690;8.898;2023-10-08T01:21:38;8.13;;;2.38;;
69207;SDS011;70114;47.690;8.898;2023-10-08T01:24:07;8.10;;;2.72;;
69207;SDS011;70114;47.690;8.898;2023-10-08T01:26:33;8.90;;;2.13;;
69207;SDS011;70114;47.690;8.898;2023-10-08T01:28:59;10.00;;;2.45;;
69207;SDS011;70114;47.690;8.898;2023-10-08T01:31:32;8.97;;;2.50;;
69207;SDS011;70114;47.690;8.898;2023-10-08T01:33:58;8.52;;;2.40;;
69207;SDS011;70114;47.690;8.898;2023-10-08T01:36:26;8.60;;;2.30;;
69207;SDS011;70114;47.690;8.898;2023-10-08T01:38:53;9.27;;;2.50;;
69207;SDS011;70114;47.690;8.898;2023-10-08T01:41:19;9.02;;;2.35;;
69207;SDS011;70114;47.690;8.898;2023-10-08T01:43:55;8.45;;;2.25;;
69207;SDS011;70114;47.690;8.898;2023-10-08T01:46:23;9.35;;;2.63;;
69207;SDS011;70114;47.690;8.898;2023-10-08T01:48:51;8.77;;;2.50;;
69207;SDS011;70114;47.690;8.898;2023-10-08T01:51:18;8.50;;;2.50;;
69207;SDS011;70114;47.690;8.898;2023-10-08T01:53:54;8.88;;;2.60;;
69207;SDS011;70114;47.690;8.898;2023-10-08T01:56:23;8.50;;;2.50;;
69207;SDS011;70114;47.690;8.898;2023-10-08T01:58:49;8.37;;;2.40;;
69207;SDS011;70114;47.690;8.898;2023-10-08T02:01:18;8.38;;;2.33;;
69207;SDS011;70114;47.690;8.898;2023-10-08T02:03:44;8.00;;;2.30;;
69207;SDS011;70114;47.690;8.898;2023-10-08T02:06:10;8.90;;;2.20;;
69207;SDS011;70114;47.690;8.898;2023-10-08T02:08:37;8.10;;;2.17;;
69207;SDS011;70114;47.690;8.898;2023-10-08T02:11:03;8.40;;;2.33;;
69207;SDS011;70114;47.690;8.898;2023-10-08T02:13:28;8.13;;;2.13;;
69207;SDS011;70114;47.690;8.898;2023-10-08T02:15:54;7.33;;;2.27;;
69207;SDS011;70114;47.690;8.898;2023-10-08T02:18:19;8.10;;;2.37;;
69207;SDS011;70114;47.690;8.898;2023-10-08T02:20:48;9.00;;;2.30;;
69207;SDS011;70114;47.690;8.898;2023-10-08T02:23:13;7.43;;;2.05;;
69207;SDS011;70114;47.690;8.898;2023-10-08T02:25:39;8.37;;;2.13;;
69207;SDS011;70114;47.690;8.898;2023-10-08T02:28:05;9.75;;;2.58;;
69207;SDS011;70114;47.690;8.898;2023-10-08T02:30:37;7.20;;;1.87;;
69207;SDS011;70114;47.690;8.898;2023-10-08T02:33:04;8.02;;;1.90;;
69207;SDS011;70114;47.690;8.898;2023-10-08T02:35:39;7.40;;;2.20;;
69207;SDS011;70114;47.690;8.898;2023-10-08T02:38:07;8.45;;;2.00;;
69207;SDS011;70114;47.690;8.898;2023-10-08T02:40:34;8.88;;;2.28;;
69207;SDS011;70114;47.690;8.898;2023-10-08T02:43:02;8.33;;;2.37;;
69207;SDS011;70114;47.690;8.898;2023-10-08T02:45:33;8.80;;;2.47;;
69207;SDS011;70114;47.690;8.898;2023-10-08T02:48:03;8.25;;;2.00;;
69207;SDS011;70114;47.690;8.898;2023-10-08T02:50:36;6.82;;;1.92;;
69207;SDS011;70114;47.690;8.898;2023-10-08T02:53:02;6.93;;;1.93;;
69207;SDS011;70114;47.690;8.898;2023-10-08T02:55:36;8.82;;;2.28;;
69207;SDS011;70114;47.690;8.898;2023-10-08T02:58:09;7.95;;;2.33;;
69207;SDS011;70114;47.690;8.898;2023-10-08T03:00:42;7.65;;;2.05;;
69207;SDS011;70114;47.690;8.898;2023-10-08T03:03:09;8.32;;;2.00;;
69207;SDS011;70114;47.690;8.898;2023-10-08T03:05:41;9.10;;;2.10;;
69207;SDS011;70114;47.690;8.898;2023-10-08T03:08:14;8.52;;;2.33;;
69207;SDS011;70114;47.690;8.898;2023-10-08T03:10:45;8.32;;;2.20;;
69207;SDS011;70114;47.690;8.898;2023-10-08T03:13:13;8.40;;;2.20;;
69207;SDS011;70114;47.690;8.898;2023-10-08T03:15:42;8.40;;;2.10;;
69207;SDS011;70114;47.690;8.898;2023-10-08T03:18:27;12.60;;;2.70;;
69207;SDS011;70114;47.690;8.898;2023-10-08T03:21:05;8.40;;;2.17;;
69207;SDS011;70114;47.690;8.898;2023-10-08T03:23:45;10.32;;;2.42;;
69207;SDS011;70114;47.690;8.898;2023-10-08T03:26:12;8.90;;;2.40;;
69207;SDS011;70114;47.690;8.898;2023-10-08T03:29:01;8.15;;;2.13;;
69207;SDS011;70114;47.690;8.898;2023-10-08T03:31:40;7.00;;;1.87;;
69207;SDS011;70114;47.690;8.898;2023-10-08T03:34:12;9.35;;;2.53;;
69207;SDS011;70114;47.690;8.898;2023-10-08T03:36:39;8.90;;;2.35;;
69207;SDS011;70114;47.690;8.898;2023-10-08T03:39:11;8.40;;;2.33;;
69207;SDS011;70114;47.690;8.898;2023-10-08T03:41:40;7.90;;;2.10;;
69207;SDS011;70114;47.690;8.898;2023-10-08T03:44:07;8.97;;;2.30;;
69207;SDS011;70114;47.690;8.898;2023-10-08T03:46:39;7.80;;;2.10;;
69207;SDS011;70114;47.690;8.898;2023-10-08T03:49:10;8.38;;;1.92;;
69207;SDS011;70114;47.690;8.898;2023-10-08T03:51:50;8.75;;;2.20;;
69207;SDS011;70114;47.690;8.898;2023-10-08T03:54:20;9.88;;;2.10;;
69207;SDS011;70114;47.690;8.898;2023-10-08T03:56:58;9.13;;;2.13;;
69207;SDS011;70114;47.690;8.898;2023-10-08T03:59:25;8.25;;;2.15;;
69207;SDS011;70114;47.690;8.898;2023-10-08T04:01:57;8.15;;;2.30;;
69207;SDS011;70114;47.690;8.898;2023-10-08T04:04:38;9.77;;;2.53;;
69207;SDS011;70114;47.690;8.898;2023-10-08T04:07:18;7.90;;;2.15;;
69207;SDS011;70114;47.690;8.898;2023-10-08T04:10:03;8.43;;;1.97;;
69207;SDS011;70114;47.690;8.898;2023-10-08T04:12:38;8.38;;;1.90;;
69207;SDS011;70114;47.690;8.898;2023-10-08T04:15:10;10.10;;;2.30;;
69207;SDS011;70114;47.690;8.898;2023-10-08T04:17:37;7.78;;;2.08;;
69207;SDS011;70114;47.690;8.898;2023-10-08T04:20:13;8.50;;;1.98;;
69207;SDS011;70114;47.690;8.898;2023-10-08T04:23:02;8.13;;;2.17;;
69207;SDS011;70114;47.690;8.898;2023-10-08T04:25:29;7.47;;;2.17;;
69207;SDS011;70114;47.690;8.898;2023-10-08T04:27:56;8.02;;;2.00;;
69207;SDS011;70114;47.690;8.898;2023-10-08T04:30:34;8.60;;;2.25;;
69207;SDS011;70114;47.690;8.898;2023-10-08T04:33:04;8.30;;;2.20;;
69207;SDS011;70114;47.690;8.898;2023-10-08T04:35:36;8.97;;;2.40;;
69207;SDS011;70114;47.690;8.898;2023-10-08T04:38:13;8.20;;;2.00;;
69207;SDS011;70114;47.690;8.898;2023-10-08T04:40:46;8.65;;;2.47;;
69207;SDS011;70114;47.690;8.898;2023-10-08T04:43:20;8.18;;;2.42;;
69207;SDS011;70114;47.690;8.898;2023-10-08T04:45:57;8.82;;;2.25;;
69207;SDS011;70114;47.690;8.898;2023-10-08T04:48:23;7.30;;;1.87;;
69207;SDS011;70114;47.690;8.898;2023-10-08T04:50:49;9.23;;;2.55;;
69207;SDS011;70114;47.690;8.898;2023-10-08T04:53:27;8.45;;;2.10;;
69207;SDS011;70114;47.690;8.898;2023-10-08T04:56:06;10.63;;;2.08;;
69207;SDS011;70114;47.690;8.898;2023-10-08T04:58:38;8.88;;;2.45;;
69207;SDS011;70114;47.690;8.898;2023-10-08T05:01:13;9.77;;;2.07;;
69207;SDS011;70114;47.690;8.898;2023-10-08T05:03:49;8.50;;;2.20;;
69207;SDS011;70114;47.690;8.898;2023-10-08T05:06:25;8.10;;;2.08;;
69207;SDS011;70114;47.690;8.898;2023-10-08T05:09:02;9.38;;;2.30;;
69207;SDS011;70114;47.690;8.898;2023-10-08T05:11:58;8.35;;;1.95;;
69207;SDS011;70114;47.690;8.898;2023-10-08T05:14:42;8.10;;;2.13;;
69207;SDS011;70114;47.690;8.898;2023-10-08T05:17:21;8.90;;;2.33;;
69207;SDS011;70114;47.690;8.898;2023-10-08T05:19:46;10.00;;;2.37;;
69207;SDS011;70114;47.690;8.898;2023-10-08T05:22:30;7.65;;;1.75;;
69207;SDS011;70114;47.690;8.898;2023-10-08T05:24:56;9.03;;;2.27;;
69207;SDS011;70114;47.690;8.898;2023-10-08T05:27:54;9.05;;;2.13;;
69207;SDS011;70114;47.690;8.898;2023-10-08T05:30:22;7.97;;;2.27;;
69207;SDS011;70114;47.690;8.898;2023-10-08T05:33:01;9.27;;;2.05;;
69207;SDS011;70114;47.690;8.898;2023-10-08T05:35:44;9.13;;;1.98;;
69207;SDS011;70114;47.690;8.898;2023-10-08T05:38:18;8.57;;;2.20;;
69207;SDS011;70114;47.690;8.898;2023-10-08T05:40:48;8.93;;;2.07;;
69207;SDS011;70114;47.690;8.898;2023-10-08T05:43:25;7.45;;;1.80;;
69207;SDS011;70114;47.690;8.898;2023-10-08T05:48:44;9.43;;;2.17;;
69207;SDS011;70114;47.690;8.898;2023-10-08T05:51:26;9.05;;;1.92;;
69207;SDS011;70114;47.690;8.898;2023-10-08T05:54:25;10.20;;;1.83;;
69207;SDS011;70114;47.690;8.898;2023-10-08T05:57:03;8.05;;;1.80;;
69207;SDS011;70114;47.690;8.898;2023-10-08T06:02:24;10.68;;;2.10;;
69207;SDS011;70114;47.690;8.898;2023-10-08T06:05:02;8.85;;;1.90;;
69207;SDS011;70114;47.690;8.898;2023-10-08T06:07:49;8.03;;;2.00;;
69207;SDS011;70114;47.690;8.898;2023-10-08T06:10:19;8.23;;;2.00;;
69207;SDS011;70114;47.690;8.898;2023-10-08T06:15:37;8.23;;;1.92;;
69207;SDS011;70114;47.690;8.898;2023-10-08T06:18:12;7.53;;;1.90;;
69207;SDS011;70114;47.690;8.898;2023-10-08T06:20:39;7.37;;;1.70;;
69207;SDS011;70114;47.690;8.898;2023-10-08T06:23:08;7.72;;;1.50;;
69207;SDS011;70114;47.690;8.898;2023-10-08T06:25:37;11.82;;;2.47;;
69207;SDS011;70114;47.690;8.898;2023-10-08T06:28:12;8.15;;;1.88;;
69207;SDS011;70114;47.690;8.898;2023-10-08T06:30:44;8.75;;;1.67;;
69207;SDS011;70114;47.690;8.898;2023-10-08T06:33:10;9.43;;;2.00;;
69207;SDS011;70114;47.690;8.898;2023-10-08T06:35:35;9.98;;;1.90;;
69207;SDS011;70114;47.690;8.898;2023-10-08T06:38:01;10.23;;;1.90;;
69207;SDS011;70114;47.690;8.898;2023-10-08T06:40:34;9.35;;;1.90;;
69207;SDS011;70114;47.690;8.898;2023-10-08T06:43:04;12.98;;;2.10;;
69207;SDS011;70114;47.690;8.898;2023-10-08T06:45:46;7.77;;;2.20;;
69207;SDS011;70114;47.690;8.898;2023-10-08T06:48:17;9.00;;;2.20;;
69207;SDS011;70114;47.690;8.898;2023-10-08T06:50:47;10.68;;;2.67;;
69207;SDS011;70114;47.690;8.898;2023-10-08T06:53:13;9.75;;;3.10;;
69207;SDS011;70114;47.690;8.898;2023-10-08T06:55:40;14.27;;;3.03;;
69207;SDS011;70114;47.690;8.898;2023-10-08T06:58:06;13.48;;;3.60;;
69207;SDS011;70114;47.690;8.898;2023-10-08T07:00:34;13.57;;;4.22;;
69207;SDS011;70114;47.690;8.898;2023-10-08T07:03:06;11.85;;;3.40;;
69207;SDS011;70114;47.690;8.898;2023-10-08T07:05:36;10.75;;;3.40;;
69207;SDS011;70114;47.690;8.898;2023-10-08T07:08:05;8.90;;;3.10;;
69207;SDS011;70114;47.690;8.898;2023-10-08T07:10:38;10.93;;;3.38;;
69207;SDS011;70114;47.690;8.898;2023-10-08T07:13:03;9.82;;;2.70;;
69207;SDS011;70114;47.690;8.898;2023-10-08T07:15:33;11.35;;;2.35;;
69207;SDS011;70114;47.690;8.898;2023-10-08T07:18:03;11.10;;;3.05;;
69207;SDS011;70114;47.690;8.898;2023-10-08T07:20:38;11.30;;;3.40;;
69207;SDS011;70114;47.690;8.898;2023-10-08T07:23:05;9.20;;;2.47;;
69207;SDS011;70114;47.690;8.898;2023-10-08T07:25:37;9.07;;;2.50;;
69207;SDS011;70114;47.690;8.898;2023-10-08T07:28:04;9.05;;;2.35;;
69207;SDS011;70114;47.690;8.898;2023-10-08T07:30:31;8.88;;;2.08;;
69207;SDS011;70114;47.690;8.898;2023-10-08T07:33:04;9.97;;;1.97;;
69207;SDS011;70114;47.690;8.898;2023-10-08T07:35:29;8.85;;;1.92;;
69207;SDS011;70114;47.690;8.898;2023-10-08T07:37:55;8.85;;;2.08;;
69207;SDS011;70114;47.690;8.898;2023-10-08T07:40:21;9.50;;;2.20;;
69207;SDS011;70114;47.690;8.898;2023-10-08T07:42:46;7.63;;;1.70;;
69207;SDS011;70114;47.690;8.898;2023-10-08T07:45:17;9.88;;;2.03;;
69207;SDS011;70114;47.690;8.898;2023-10-08T07:47:43;8.38;;;1.80;;
69207;SDS011;70114;47.690;8.898;2023-10-08T07:50:09;8.73;;;2.28;;
69207;SDS011;70114;47.690;8.898;2023-10-08T07:52:38;11.37;;;2.40;;
69207;SDS011;70114;47.690;8.898;2023-10-08T07:55:04;9.02;;;2.15;;
69207;SDS011;70114;47.690;8.898;2023-10-08T07:57:30;9.52;;;2.13;;
69207;SDS011;70114;47.690;8.898;2023-10-08T07:59:56;10.13;;;1.70;;
69207;SDS011;70114;47.690;8.898;2023-10-08T08:02:41;9.10;;;1.90;;
69207;SDS011;70114;47.690;8.898;2023-10-08T08:05:07;10.17;;;2.20;;
69207;SDS011;70114;47.690;8.898;2023-10-08T08:07:36;8.90;;;1.95;;
69207;SDS011;70114;47.690;8.898;2023-10-08T08:10:02;10.15;;;2.40;;
69207;SDS011;70114;47.690;8.898;2023-10-08T08:12:32;8.82;;;2.00;;
69207;SDS011;70114;47.690;8.898;2023-10-08T08:14:58;10.97;;;2.03;;
69207;SDS011;70114;47.690;8.898;2023-10-08T08:17:24;10.52;;;2.60;;
69207;SDS011;70114;47.690;8.898;2023-10-08T08:19:50;8.43;;;2.10;;
69207;SDS011;70114;47.690;8.898;2023-10-08T08:22:17;10.20;;;2.20;;
69207;SDS011;70114;47.690;8.898;2023-10-08T08:24:47;8.88;;;2.38;;
69207;SDS011;70114;47.690;8.898;2023-10-08T08:27:19;8.80;;;2.25;;
69207;SDS011;70114;47.690;8.898;2023-10-08T08:29:56;8.45;;;2.45;;
69207;SDS011;70114;47.690;8.898;2023-10-08T08:32:34;9.30;;;2.30;;
69207;SDS011;70114;47.690;8.898;2023-10-08T08:35:00;9.90;;;2.58;;
69207;SDS011;70114;47.690;8.898;2023-10-08T08:37:26;9.10;;;2.17;;
69207;SDS011;70114;47.690;8.898;2023-10-08T08:39:57;7.90;;;2.13;;
69207;SDS011;70114;47.690;8.898;2023-10-08T08:42:22;8.52;;;1.70;;
69207;SDS011;70114;47.690;8.898;2023-10-08T08:44:49;10.87;;;2.50;;
69207;SDS011;70114;47.690;8.898;2023-10-08T08:47:16;9.15;;;1.90;;
69207;SDS011;70114;47.690;8.898;2023-10-08T08:49:45;9.07;;;1.98;;
69207;SDS011;70114;47.690;8.898;2023-10-08T08:52:12;10.52;;;2.17;;
69207;SDS011;70114;47.690;8.898;2023-10-08T08:54:39;8.30;;;2.10;;
69207;SDS011;70114;47.690;8.898;2023-10-08T08:57:07;8.65;;;2.50;;
69207;SDS011;70114;47.690;8.898;2023-10-08T08:59:38;9.30;;;2.25;;
69207;SDS011;70114;47.690;8.898;2023-10-08T09:02:17;10.20;;;2.60;;
69207;SDS011;70114;47.690;8.898;2023-10-08T09:04:43;10.67;;;2.53;;
69207;SDS011;70114;47.690;8.898;2023-10-08T09:07:10;8.98;;;2.50;;
69207;SDS011;70114;47.690;8.898;2023-10-08T09:09:37;10.43;;;2.50;;
69207;SDS011;70114;47.690;8.898;2023-10-08T09:12:05;9.00;;;2.30;;
69207;SDS011;70114;47.690;8.898;2023-10-08T09:14:35;8.85;;;2.10;;
69207;SDS011;70114;47.690;8.898;2023-10-08T09:17:01;8.00;;;2.20;;
69207;SDS011;70114;47.690;8.898;2023-10-08T09:19:30;9.00;;;1.80;;
69207;SDS011;70114;47.690;8.898;2023-10-08T09:22:01;8.95;;;2.40;;
69207;SDS011;70114;47.690;8.898;2023-10-08T09:24:34;10.98;;;2.38;;
69207;SDS011;70114;47.690;8.898;2023-10-08T09:27:04;9.40;;;2.25;;
69207;SDS011;70114;47.690;8.898;2023-10-08T09:29:30;10.10;;;2.20;;
69207;SDS011;70114;47.690;8.898;2023-10-08T09:31:56;8.88;;;2.63;;
69207;SDS011;70114;47.690;8.898;2023-10-08T09:34:26;10.85;;;2.80;;
69207;SDS011;70114;47.690;8.898;2023-10-08T09:36:58;9.05;;;2.20;;
69207;SDS011;70114;47.690;8.898;2023-10-08T09:39:25;9.15;;;2.08;;
69207;SDS011;70114;47.690;8.898;2023-10-08T09:41:54;10.07;;;2.40;;
69207;SDS011;70114;47.690;8.898;2023-10-08T09:44:20;9.25;;;2.22;;
69207;SDS011;70114;47.690;8.898;2023-10-08T09:46:51;10.02;;;2.65;;
69207;SDS011;70114;47.690;8.898;2023-10-08T09:49:31;8.13;;;2.10;;
69207;SDS011;70114;47.690;8.898;2023-10-08T09:52:01;9.75;;;2.47;;
69207;SDS011;70114;47.690;8.898;2023-10-08T09:54:31;9.40;;;2.63;;
69207;SDS011;70114;47.690;8.898;2023-10-08T09:57:03;8.77;;;2.63;;
69207;SDS011;70114;47.690;8.898;2023-10-08T09:59:31;9.68;;;2.65;;
69207;SDS011;70114;47.690;8.898;2023-10-08T10:01:58;8.60;;;2.40;;
69207;SDS011;70114;47.690;8.898;2023-10-08T10:04:25;8.85;;;2.33;;
69207;SDS011;70114;47.690;8.898;2023-10-08T10:06:54;9.57;;;2.60;;
69207;SDS011;70114;47.690;8.898;2023-10-08T10:09:23;9.82;;;2.35;;
69207;SDS011;70114;47.690;8.898;2023-10-08T10:11:50;9.05;;;2.20;;
69207;SDS011;70114;47.690;8.898;2023-10-08T10:14:18;9.93;;;2.63;;
69207;SDS011;70114;47.690;8.898;2023-10-08T10:16:47;8.47;;;2.50;;
69207;SDS011;70114;47.690;8.898;2023-10-08T10:19:17;9.68;;;2.22;;
69207;SDS011;70114;47.690;8.898;2023-10-08T10:21:43;11.05;;;3.05;;
69207;SDS011;70114;47.690;8.898;2023-10-08T10:24:32;8.10;;;2.28;;
69207;SDS011;70114;47.690;8.898;2023-10-08T10:27:15;9.00;;;2.40;;
69207;SDS011;70114;47.690;8.898;2023-10-08T10:29:41;9.87;;;2.33;;
69207;SDS011;70114;47.690;8.898;2023-10-08T10:32:12;9.80;;;2.33;;
69207;SDS011;70114;47.690;8.898;2023-10-08T10:34:40;9.25;;;2.20;;
69207;SDS011;70114;47.690;8.898;2023-10-08T10:37:07;8.73;;;2.45;;
69207;SDS011;70114;47.690;8.898;2023-10-08T10:39:51;10.07;;;2.30;;
69207;SDS011;70114;47.690;8.898;2023-10-08T10:42:21;9.83;;;1.97;;
69207;SDS011;70114;47.690;8.898;2023-10-08T10:44:47;10.50;;;2.40;;
69207;SDS011;70114;47.690;8.898;2023-10-08T10:47:14;11.13;;;2.33;;
69207;SDS011;70114;47.690;8.898;2023-10-08T10:49:40;10.48;;;2.20;;
69207;SDS011;70114;47.690;8.898;2023-10-08T10:52:26;8.40;;;2.22;;
69207;SDS011;70114;47.690;8.898;2023-10-08T10:55:16;9.30;;;2.37;;
69207;SDS011;70114;47.690;8.898;2023-10-08T10:57:48;9.82;;;2.58;;
69207;SDS011;70114;47.690;8.898;2023-10-08T11:00:24;12.15;;;3.90;;
69207;SDS011;70114;47.690;8.898;2023-10-08T11:02:59;7.72;;;2.20;;
69207;SDS011;70114;47.690;8.898;2023-10-08T11:05:35;9.73;;;2.40;;
69207;SDS011;70114;47.690;8.898;2023-10-08T11:08:02;9.73;;;2.30;;
69207;SDS011;70114;47.690;8.898;2023-10-08T11:10:31;10.77;;;2.63;;
69207;SDS011;70114;47.690;8.898;2023-10-08T11:13:08;9.43;;;2.20;;
69207;SDS011;70114;47.690;8.898;2023-10-08T11:15:40;8.75;;;2.25;;
69207;SDS011;70114;47.690;8.898;2023-10-08T11:18:07;10.95;;;2.38;;
69207;SDS011;70114;47.690;8.898;2023-10-08T11:20:34;9.57;;;1.80;;
69207;SDS011;70114;47.690;8.898;2023-10-08T11:23:08;10.18;;;1.98;;
69207;SDS011;70114;47.690;8.898;2023-10-08T11:26:04;13.27;;;1.88;;
69207;SDS011;70114;47.690;8.898;2023-10-08T11:28:34;10.88;;;1.95;;
69207;SDS011;70114;47.690;8.898;2023-10-08T11:31:07;11.35;;;2.47;;
69207;SDS011;70114;47.690;8.898;2023-10-08T11:33:43;12.90;;;1.97;;
69207;SDS011;70114;47.690;8.898;2023-10-08T11:36:19;11.13;;;2.33;;
69207;SDS011;70114;47.690;8.898;2023-10-08T11:38:49;10.40;;;2.20;;
69207;SDS011;70114;47.690;8.898;2023-10-08T11:41:18;11.95;;;2.03;;
69207;SDS011;70114;47.690;8.898;2023-10-08T11:43:48;8.30;;;2.08;;
69207;SDS011;70114;47.690;8.898;2023-10-08T11:46:25;14.07;;;2.40;;
69207;SDS011;70114;47.690;8.898;2023-10-08T11:48:59;11.82;;;2.03;;
69207;SDS011;70114;47.690;8.898;2023-10-08T11:51:33;11.90;;;2.55;;
69207;SDS011;70114;47.690;8.898;2023-10-08T11:54:01;11.90;;;2.17;;
69207;SDS011;70114;47.690;8.898;2023-10-08T11:56:31;12.63;;;2.10;;
69207;SDS011;70114;47.690;8.898;2023-10-08T11:58:58;12.63;;;2.13;;
69207;SDS011;70114;47.690;8.898;2023-10-08T12:01:25;16.33;;;2.65;;
69207;SDS011;70114;47.690;8.898;2023-10-08T12:03:52;9.52;;;2.00;;
69207;SDS011;70114;47.690;8.898;2023-10-08T12:06:18;11.32;;;2.20;;
69207;SDS011;70114;47.690;8.898;2023-10-08T12:08:47;10.40;;;1.87;;
69207;SDS011;70114;47.690;8.898;2023-10-08T12:11:18;12.00;;;1.90;;
69207;SDS011;70114;47.690;8.898;2023-10-08T12:13:44;13.32;;;2.53;;
69207;SDS011;70114;47.690;8.898;2023-10-08T12:16:16;12.93;;;2.90;;
69207;SDS011;70114;47.690;8.898;2023-10-08T12:18:47;14.98;;;2.35;;
69207;SDS011;70114;47.690;8.898;2023-10-08T12:21:14;12.05;;;2.13;;
69207;SDS011;70114;47.690;8.898;2023-10-08T12:23:41;13.53;;;2.40;;
69207;SDS011;70114;47.690;8.898;2023-10-08T12:26:14;17.20;;;2.65;;
69207;SDS011;70114;47.690;8.898;2023-10-08T12:28:41;10.27;;;2.28;;
69207;SDS011;70114;47.690;8.898;2023-10-08T12:31:09;17.65;;;2.90;;
69207;SDS011;70114;47.690;8.898;2023-10-08T12:33:36;15.13;;;2.22;;
69207;SDS011;70114;47.690;8.898;2023-10-08T12:36:02;16.23;;;2.57;;
69207;SDS011;70114;47.690;8.898;2023-10-08T12:38:35;13.45;;;2.13;;
69207;SDS011;70114;47.690;8.898;2023-10-08T12:41:01;19.42;;;2.70;;
69207;SDS011;70114;47.690;8.898;2023-10-08T12:43:36;15.38;;;2.70;;
69207;SDS011;70114;47.690;8.898;2023-10-08T12:46:04;15.30;;;2.70;;
69207;SDS011;70114;47.690;8.898;2023-10-08T12:48:35;16.97;;;2.60;;
69207;SDS011;70114;47.690;8.898;2023-10-08T12:51:02;12.98;;;2.33;;
69207;SDS011;70114;47.690;8.898;2023-10-08T12:53:30;18.08;;;2.78;;
69207;SDS011;70114;47.690;8.898;2023-10-08T12:56:02;13.68;;;2.40;;
69207;SDS011;70114;47.690;8.898;2023-10-08T12:58:35;13.43;;;2.22;;
69207;SDS011;70114;47.690;8.898;2023-10-08T13:01:12;13.20;;;2.23;;
69207;SDS011;70114;47.690;8.898;2023-10-08T13:03:39;12.77;;;2.35;;
69207;SDS011;70114;47.690;8.898;2023-10-08T13:06:12;13.73;;;2.60;;
69207;SDS011;70114;47.690;8.898;2023-10-08T13:08:46;15.88;;;3.15;;
69207;SDS011;70114;47.690;8.898;2023-10-08T13:11:12;13.70;;;2.85;;
69207;SDS011;70114;47.690;8.898;2023-10-08T13:13:38;12.43;;;2.60;;
69207;SDS011;70114;47.690;8.898;2023-10-08T13:16:03;14.80;;;3.27;;
69207;SDS011;70114;47.690;8.898;2023-10-08T13:18:32;15.18;;;2.78;;
69207;SDS011;70114;47.690;8.898;2023-10-08T13:21:02;12.25;;;2.70;;
69207;SDS011;70114;47.690;8.898;2023-10-08T13:23:28;13.97;;;2.70;;
69207;SDS011;70114;47.690;8.898;2023-10-08T13:25:54;13.00;;;2.70;;
69207;SDS011;70114;47.690;8.898;2023-10-08T13:28:23;11.37;;;2.27;;
69207;SDS011;70114;47.690;8.898;2023-10-08T13:30:51;9.82;;;2.60;;
69207;SDS011;70114;47.690;8.898;2023-10-08T13:33:19;14.88;;;2.63;;
69207;SDS011;70114;47.690;8.898;2023-10-08T13:35:45;14.77;;;2.72;;
69207;SDS011;70114;47.690;8.898;2023-10-08T13:38:13;18.77;;;2.90;;
69207;SDS011;70114;47.690;8.898;2023-10-08T13:40:41;17.50;;;2.80;;
69207;SDS011;70114;47.690;8.898;2023-10-08T13:43:26;17.80;;;3.00;;
69207;SDS011;70114;47.690;8.898;2023-10-08T13:45:58;14.98;;;2.20;;
69207;SDS011;70114;47.690;8.898;2023-10-08T13:48:32;18.98;;;2.90;;
69207;SDS011;70114;47.690;8.898;2023-10-08T13:50:59;14.80;;;2.73;;
69207;SDS011;70114;47.690;8.898;2023-10-08T13:53:25;20.77;;;3.70;;
69207;SDS011;70114;47.690;8.898;2023-10-08T13:55:55;16.52;;;2.97;;
69207;SDS011;70114;47.690;8.898;2023-10-08T13:58:28;16.80;;;2.78;;
69207;SDS011;70114;47.690;8.898;2023-10-08T14:00:59;13.15;;;2.47;;
69207;SDS011;70114;47.690;8.898;2023-10-08T14:03:28;17.73;;;2.70;;
69207;SDS011;70114;47.690;8.898;2023-10-08T14:05:57;15.90;;;2.85;;
69207;SDS011;70114;47.690;8.898;2023-10-08T14:08:28;15.05;;;2.67;;
69207;SDS011;70114;47.690;8.898;2023-10-08T14:10:54;15.27;;;2.90;;
69207;SDS011;70114;47.690;8.898;2023-10-08T14:13:25;16.00;;;2.47;;
69207;SDS011;70114;47.690;8.898;2023-10-08T14:15:52;14.03;;;2.67;;
69207;SDS011;70114;47.690;8.898;2023-10-08T14:18:21;21.55;;;3.78;;
69207;SDS011;70114;47.690;8.898;2023-10-08T14:20:52;15.20;;;2.83;;
69207;SDS011;70114;47.690;8.898;2023-10-08T14:23:19;18.15;;;3.28;;
69207;SDS011;70114;47.690;8.898;2023-10-08T14:25:50;14.25;;;2.60;;
69207;SDS011;70114;47.690;8.898;2023-10-08T14:28:17;17.70;;;3.03;;
69207;SDS011;70114;47.690;8.898;2023-10-08T14:31:08;15.95;;;3.10;;
69207;SDS011;70114;47.690;8.898;2023-10-08T14:33:40;19.80;;;3.30;;
69207;SDS011;70114;47.690;8.898;2023-10-08T14:36:22;17.48;;;3.05;;
69207;SDS011;70114;47.690;8.898;2023-10-08T14:39:07;17.85;;;2.88;;
69207;SDS011;70114;47.690;8.898;2023-10-08T14:41:51;15.87;;;3.30;;
69207;SDS011;70114;47.690;8.898;2023-10-08T14:44:35;14.65;;;2.88;;
69207;SDS011;70114;47.690;8.898;2023-10-08T14:47:02;17.20;;;3.53;;
69207;SDS011;70114;47.690;8.898;2023-10-08T14:49:29;18.40;;;3.15;;
69207;SDS011;70114;47.690;8.898;2023-10-08T14:51:54;14.93;;;3.03;;
69207;SDS011;70114;47.690;8.898;2023-10-08T14:54:20;15.93;;;2.73;;
69207;SDS011;70114;47.690;8.898;2023-10-08T14:56:45;18.20;;;3.10;;
69207;SDS011;70114;47.690;8.898;2023-10-08T14:59:11;15.57;;;2.77;;
69207;SDS011;70114;47.690;8.898;2023-10-08T15:01:37;15.13;;;2.88;;
69207;SDS011;70114;47.690;8.898;2023-10-08T15:04:03;15.30;;;2.67;;
69207;SDS011;70114;47.690;8.898;2023-10-08T15:06:30;14.38;;;2.92;;
69207;SDS011;70114;47.690;8.898;2023-10-08T15:08:56;13.18;;;3.05;;
69207;SDS011;70114;47.690;8.898;2023-10-08T15:11:22;14.80;;;3.53;;
69207;SDS011;70114;47.690;8.898;2023-10-08T15:13:48;14.37;;;3.30;;